Time;durP1;ratioP1;P1;durP2;ratioP2;P2;SDS_P1;SDS_P2;PMS_P1;PMS_P2;Temp;Humidity;BMP_temperature;BMP_pressure;BME280_temperature;BME280_humidity;BME280_pressure;Samples;Min_cycle;Max_cycle;Signal;HPM_P1;HPM_P2
2022/07/09 00:00:55;;;;;;;11.95;9.00;;;;;;;;;;10369432;28;20046;-75
2022/07/09 00:05:55;;;;;;;16.20;10.17;;;;;;;;;;10369301;28;20526;-74
2022/07/09 00:10:56;;;;;;;14.68;10.75;;;;;;;;;;10369299;28;20269;-75
2022/07/09 00:15:56;;;;;;;17.85;12.13;;;;;;;;;;10369235;28;20487;-74
2022/07/09 00:20:56;;;;;;;19.83;12.38;;;;;;;;;;10372310;28;20041;-75
2022/07/09 00:25:56;;;;;;;20.88;13.25;;;;;;;;;;10377143;28;20037;-75
2022/07/09 00:30:57;;;;;;;18.65;12.40;;;;;;;;;;10376892;28;20148;-74
2022/07/09 00:35:57;;;;;;;21.25;12.75;;;;;;;;;;10376756;28;20034;-74
2022/07/09 00:40:57;;;;;;;21.70;14.32;;;;;;;;;;10360010;28;20038;-76
2022/07/09 00:45:57;;;;;;;20.23;14.15;;;;;;;;;;10376569;28;20022;-74
2022/07/09 00:50:58;;;;;;;23.48;14.23;;;;;;;;;;10376371;28;20048;-74
2022/07/09 00:55:58;;;;;;;19.77;13.53;;;;;;;;;;10376231;28;20030;-75
2022/07/09 01:00:59;;;;;;;18.93;11.40;;;;;;;;;;10375953;28;20307;-74
2022/07/09 01:05:59;;;;;;;18.00;10.85;;;;;;;;;;10375812;28;20557;-74
2022/07/09 01:11:00;;;;;;;15.05;10.48;;;;;;;;;;10359184;28;20526;-74
2022/07/09 01:16:00;;;;;;;17.75;8.63;;;;;;;;;;10359190;28;20538;-74
2022/07/09 01:21:00;;;;;;;17.07;9.23;;;;;;;;;;10383620;28;20121;-74
2022/07/09 01:26:01;;;;;;;15.15;9.45;;;;;;;;;;10375007;28;20320;-74
2022/07/09 01:31:01;;;;;;;12.80;8.73;;;;;;;;;;10374041;28;20030;-74
2022/07/09 01:36:01;;;;;;;14.27;8.80;;;;;;;;;;10374341;28;20272;-74
2022/07/09 01:41:02;;;;;;;16.58;9.27;;;;;;;;;;10374203;28;20061;-74
2022/07/09 01:46:02;;;;;;;13.32;9.30;;;;;;;;;;10375549;28;20503;-74
2022/07/09 01:51:02;;;;;;;14.70;9.75;;;;;;;;;;10357379;28;20462;-74
2022/07/09 01:56:06;;;;;;;19.07;10.57;;;;;;;;;;10357319;28;20030;-76
2022/07/09 02:01:07;;;;;;;14.85;7.85;;;;;;;;;;10373240;28;20435;-75
2022/07/09 02:06:07;;;;;;;11.88;8.38;;;;;;;;;;10374674;28;20034;-76
2022/07/09 02:11:08;;;;;;;17.52;8.60;;;;;;;;;;10372816;28;20034;-73
2022/07/09 02:16:08;;;;;;;23.00;13.10;;;;;;;;;;10372743;28;20033;-74
2022/07/09 02:21:08;;;;;;;10.57;6.73;;;;;;;;;;10372977;28;20121;-74
2022/07/09 02:26:09;;;;;;;15.15;8.63;;;;;;;;;;10373197;28;20336;-74
2022/07/09 02:31:09;;;;;;;8.80;6.63;;;;;;;;;;10372093;28;20054;-75
2022/07/09 02:36:09;;;;;;;13.00;6.82;;;;;;;;;;10373575;28;20038;-75
2022/07/09 02:41:09;;;;;;;13.77;6.93;;;;;;;;;;10355485;28;20121;-75
2022/07/09 02:46:10;;;;;;;10.20;7.33;;;;;;;;;;10354652;28;20479;-74
2022/07/09 02:51:10;;;;;;;10.07;7.22;;;;;;;;;;10371343;28;20030;-73
2022/07/09 02:56:11;;;;;;;11.00;7.40;;;;;;;;;;10371686;28;20108;-75
2022/07/09 03:01:11;;;;;;;8.43;6.65;;;;;;;;;;10372743;28;20132;-74
2022/07/09 03:06:12;;;;;;;10.90;7.55;;;;;;;;;;10371270;28;20037;-73
2022/07/09 03:11:13;;;;;;;9.88;7.32;;;;;;;;;;10372481;28;20037;-75
2022/07/09 03:16:13;;;;;;;11.20;8.80;;;;;;;;;;10370889;28;20431;-74
2022/07/09 03:21:13;;;;;;;9.35;7.43;;;;;;;;;;10354602;28;20468;-74
2022/07/09 03:26:14;;;;;;;11.93;8.02;;;;;;;;;;10371928;28;20101;-74
2022/07/09 03:31:14;;;;;;;10.85;7.10;;;;;;;;;;10371566;28;20084;-75
2022/07/09 03:36:15;;;;;;;10.73;7.82;;;;;;;;;;10371619;28;20045;-74
2022/07/09 03:41:15;;;;;;;10.35;6.53;;;;;;;;;;10354049;28;20038;-73
2022/07/09 03:46:15;;;;;;;15.10;7.72;;;;;;;;;;10353578;28;20411;-75
2022/07/09 03:51:16;;;;;;;17.87;12.77;;;;;;;;;;10369869;28;20491;-74
2022/07/09 03:56:16;;;;;;;17.35;11.65;;;;;;;;;;10376573;28;20025;-74
2022/07/09 04:01:16;;;;;;;11.23;8.77;;;;;;;;;;10384340;28;20054;-75
2022/07/09 04:06:17;;;;;;;11.52;8.25;;;;;;;;;;10383394;28;20042;-76
2022/07/09 04:11:17;;;;;;;9.47;6.90;;;;;;;;;;10366551;28;20557;-74
2022/07/09 04:16:17;;;;;;;8.52;7.18;;;;;;;;;;10382886;28;20359;-74
2022/07/09 04:21:17;;;;;;;10.15;7.50;;;;;;;;;;10382755;28;20037;-74
2022/07/09 04:26:21;;;;;;;12.02;7.28;;;;;;;;;;10383749;28;20037;-74
2022/07/09 04:31:21;;;;;;;10.32;6.43;;;;;;;;;;10383785;28;20491;-74
2022/07/09 04:36:21;;;;;;;10.38;7.32;;;;;;;;;;10382751;28;20030;-74
2022/07/09 04:41:22;;;;;;;11.48;8.50;;;;;;;;;;10382511;28;20412;-75
2022/07/09 04:46:22;;;;;;;14.57;9.33;;;;;;;;;;10382674;28;20030;-74
2022/07/09 04:51:22;;;;;;;10.23;7.87;;;;;;;;;;10382441;28;20037;-75
2022/07/09 04:56:22;;;;;;;9.02;6.75;;;;;;;;;;10383681;28;20022;-74
2022/07/09 05:01:23;;;;;;;9.52;6.82;;;;;;;;;;10382170;28;20136;-74
2022/07/09 05:06:23;;;;;;;9.88;6.32;;;;;;;;;;10363539;28;20030;-75
2022/07/09 05:11:24;;;;;;;7.60;5.75;;;;;;;;;;10375465;28;20416;-75
2022/07/09 05:16:24;;;;;;;9.68;7.30;;;;;;;;;;10359512;28;20026;-74
2022/07/09 05:21:25;;;;;;;9.68;6.22;;;;;;;;;;10374941;28;20040;-74
2022/07/09 05:26:25;;;;;;;8.38;7.20;;;;;;;;;;10375257;28;20029;-75
2022/07/09 05:31:25;;;;;;;9.95;6.30;;;;;;;;;;10375095;28;20034;-75
2022/07/09 05:36:28;;;;;;;14.63;7.80;;;;;;;;;;10375938;28;20164;-74
2022/07/09 05:41:28;;;;;;;8.93;5.78;;;;;;;;;;10358086;28;20117;-74
2022/07/09 05:46:29;;;;;;;7.47;6.23;;;;;;;;;;10358082;28;20125;-74
2022/07/09 05:51:29;;;;;;;7.40;5.50;;;;;;;;;;10357872;28;20022;-74
2022/07/09 05:56:30;;;;;;;8.53;6.40;;;;;;;;;;10373922;28;20172;-74
2022/07/09 06:01:30;;;;;;;7.75;5.93;;;;;;;;;;10373140;28;20139;-73
2022/07/09 06:06:30;;;;;;;11.30;5.72;;;;;;;;;;10374152;28;20041;-74
2022/07/09 06:11:31;;;;;;;7.07;5.20;;;;;;;;;;10373448;28;20042;-74
2022/07/09 06:16:31;;;;;;;10.00;5.43;;;;;;;;;;10373430;28;20092;-74
2022/07/09 06:21:31;;;;;;;12.60;6.00;;;;;;;;;;10373983;28;20121;-73
2022/07/09 06:26:33;;;;;;;9.32;5.38;;;;;;;;;;10372497;28;20030;-73
2022/07/09 06:31:34;;;;;;;9.38;6.50;;;;;;;;;;10355783;28;20025;-75
2022/07/09 06:36:35;;;;;;;11.90;6.32;;;;;;;;;;10373247;28;20022;-74
2022/07/09 06:41:35;;;;;;;8.20;6.20;;;;;;;;;;10355531;28;20487;-73
2022/07/09 06:46:35;;;;;;;7.25;5.90;;;;;;;;;;10371610;28;20416;-75
2022/07/09 06:51:36;;;;;;;7.03;5.68;;;;;;;;;;10371242;28;20409;-74
2022/07/09 06:56:36;;;;;;;6.65;5.95;;;;;;;;;;10371685;28;20037;-74
2022/07/09 07:01:36;;;;;;;10.23;6.07;;;;;;;;;;10354250;28;20093;-75
2022/07/09 07:06:36;;;;;;;7.55;6.47;;;;;;;;;;10354397;28;20096;-75
2022/07/09 07:11:37;;;;;;;9.25;5.38;;;;;;;;;;10370870;28;20038;-75
2022/07/09 07:16:37;;;;;;;8.55;5.78;;;;;;;;;;10371092;28;20034;-73
2022/07/09 07:21:38;;;;;;;8.82;6.40;;;;;;;;;;10371074;28;20038;-73
2022/07/09 07:26:38;;;;;;;12.82;6.72;;;;;;;;;;10354175;28;20034;-73
2022/07/09 07:31:38;;;;;;;8.27;6.63;;;;;;;;;;10371039;28;20077;-73
2022/07/09 07:36:39;;;;;;;11.48;5.93;;;;;;;;;;10370021;28;20487;-74
2022/07/09 07:41:39;;;;;;;12.52;5.97;;;;;;;;;;10370185;28;20037;-74
2022/07/09 07:46:39;;;;;;;6.35;5.07;;;;;;;;;;10370257;28;20100;-74
2022/07/09 07:51:39;;;;;;;6.22;4.18;;;;;;;;;;10353059;28;20042;-73
2022/07/09 07:56:41;;;;;;;7.68;4.30;;;;;;;;;;10370737;28;20117;-73
2022/07/09 08:01:41;;;;;;;5.53;4.63;;;;;;;;;;10369416;28;20469;-74
2022/07/09 08:06:41;;;;;;;9.18;4.57;;;;;;;;;;10352884;28;20042;-74
2022/07/09 08:11:41;;;;;;;6.45;4.65;;;;;;;;;;10370500;28;20033;-74
2022/07/09 08:16:42;;;;;;;6.45;4.30;;;;;;;;;;10369202;28;20026;-74
2022/07/09 08:21:42;;;;;;;5.03;4.32;;;;;;;;;;10368965;28;20052;-73
2022/07/09 08:26:42;;;;;;;5.97;4.82;;;;;;;;;;10369763;28;20530;-75
2022/07/09 08:31:42;;;;;;;8.50;5.05;;;;;;;;;;10370379;28;20042;-74
2022/07/09 08:36:44;;;;;;;7.45;5.72;;;;;;;;;;10352557;28;20042;-74
2022/07/09 08:41:44;;;;;;;5.95;4.47;;;;;;;;;;10369691;28;20388;-75
2022/07/09 08:46:44;;;;;;;5.72;4.55;;;;;;;;;;10376250;28;20116;-76
2022/07/09 08:51:45;;;;;;;4.60;3.80;;;;;;;;;;10375839;28;20088;-75
2022/07/09 08:56:46;;;;;;;4.65;4.10;;;;;;;;;;10359569;28;20025;-75
2022/07/09 09:01:46;;;;;;;5.13;4.38;;;;;;;;;;10375635;28;20584;-75
2022/07/09 09:06:46;;;;;;;11.73;4.35;;;;;;;;;;10375418;28;20033;-75
2022/07/09 09:11:48;;;;;;;10.02;4.47;;;;;;;;;;10375160;28;20041;-75
2022/07/09 09:16:49;;;;;;;7.40;5.05;;;;;;;;;;10376368;28;20525;-75
2022/07/09 09:21:53;;;;;;;8.50;4.40;;;;;;;;;;10384266;28;20451;-76
2022/07/09 09:26:56;;;;;;;4.25;3.70;;;;;;;;;;10376123;28;20129;-75
2022/07/09 09:31:56;;;;;;;6.45;3.90;;;;;;;;;;10358698;28;20037;-75
2022/07/09 09:36:56;;;;;;;9.60;4.38;;;;;;;;;;10374471;28;20459;-75
2022/07/09 09:41:58;;;;;;;6.40;4.63;;;;;;;;;;10375634;28;20026;-76
2022/07/09 09:46:58;;;;;;;5.35;4.18;;;;;;;;;;10357446;28;20276;-75
2022/07/09 09:52:06;;;;;;;12.60;6.23;;;;;;;;;;10374762;28;20050;-75
2022/07/09 09:57:07;;;;;;;7.85;5.30;;;;;;;;;;10375185;28;20261;-75
2022/07/09 10:02:11;;;;;;;6.70;4.68;;;;;;;;;;10356747;28;20107;-75
2022/07/09 10:07:13;;;;;;;6.30;4.72;;;;;;;;;;10373124;28;20073;-75
2022/07/09 10:12:13;;;;;;;5.28;4.35;;;;;;;;;;10356704;28;20045;-75
2022/07/09 10:17:14;;;;;;;11.57;4.95;;;;;;;;;;10374164;28;20407;-73
2022/07/09 10:22:14;;;;;;;4.28;3.88;;;;;;;;;;10372715;28;20117;-74
2022/07/09 10:27:14;;;;;;;13.15;3.78;;;;;;;;;;10372743;28;20121;-75
2022/07/09 10:32:21;;;;;;;4.25;3.83;;;;;;;;;;10372085;28;20096;-74
2022/07/09 10:37:31;;;;;;;12.83;4.27;;;;;;;;;;10355627;28;20030;-75
2022/07/09 10:42:31;;;;;;;6.15;3.90;;;;;;;;;;10372863;28;20034;-74
2022/07/09 10:47:40;;;;;;;12.32;6.05;;;;;;;;;;10355389;28;20092;-75
2022/07/09 10:52:40;;;;;;;5.45;4.07;;;;;;;;;;10371125;28;20029;-75
2022/07/09 10:57:41;;;;;;;6.60;3.50;;;;;;;;;;10372439;28;20088;-75
2022/07/09 11:03:13;;;;;;;5.28;2.40;;;;;;;;;;10371088;28;20065;-75
2022/07/09 11:08:13;;;;;;;6.20;2.63;;;;;;;;;;10332734;28;20034;-75
2022/07/09 11:13:14;;;;;;;3.28;2.80;;;;;;;;;;10370666;28;20407;-75
2022/07/09 11:18:14;;;;;;;6.28;2.65;;;;;;;;;;10370489;28;20025;-75
2022/07/09 11:23:15;;;;;;;8.93;2.95;;;;;;;;;;10371743;28;20037;-75
2022/07/09 11:28:22;;;;;;;3.45;2.22;;;;;;;;;;10370921;28;20044;-74
2022/07/09 11:33:22;;;;;;;5.83;2.70;;;;;;;;;;10371533;28;20038;-75
2022/07/09 11:38:23;;;;;;;5.47;3.00;;;;;;;;;;10369548;28;20257;-75
2022/07/09 11:43:23;;;;;;;2.05;1.83;;;;;;;;;;10369747;28;20037;-74
2022/07/09 11:48:23;;;;;;;3.90;1.88;;;;;;;;;;10353156;28;20122;-74
2022/07/09 11:53:25;;;;;;;2.85;2.17;;;;;;;;;;10369286;28;20034;-75
2022/07/09 11:58:26;;;;;;;2.78;1.95;;;;;;;;;;10349973;28;20034;-74
2022/07/09 12:03:27;;;;;;;1.98;1.75;;;;;;;;;;10366100;28;20050;-74
2022/07/09 12:08:29;;;;;;;2.47;1.92;;;;;;;;;;10352938;28;20038;-75
2022/07/09 12:13:30;;;;;;;1.95;1.70;;;;;;;;;;10370439;28;20041;-75
2022/07/09 12:18:30;;;;;;;4.32;2.13;;;;;;;;;;10358513;28;20488;-74
2022/07/09 12:23:30;;;;;;;2.80;1.70;;;;;;;;;;10376937;28;20508;-74
2022/07/09 12:28:30;;;;;;;2.72;2.00;;;;;;;;;;10376940;28;20041;-74
2022/07/09 12:33:30;;;;;;;2.65;1.63;;;;;;;;;;10377150;28;20037;-75
2022/07/09 12:38:31;;;;;;;2.13;1.67;;;;;;;;;;10377679;28;20098;-74
2022/07/09 12:43:31;;;;;;;3.90;1.88;;;;;;;;;;10360514;28;20030;-74
2022/07/09 12:48:31;;;;;;;4.65;2.15;;;;;;;;;;10375869;28;20091;-74
2022/07/09 12:53:31;;;;;;;5.85;1.92;;;;;;;;;;10359582;28;20049;-74
2022/07/09 12:58:32;;;;;;;3.33;1.90;;;;;;;;;;10375686;28;20523;-74
2022/07/09 13:03:32;;;;;;;1.90;1.70;;;;;;;;;;10359130;28;20554;-74
2022/07/09 13:08:32;;;;;;;4.45;2.10;;;;;;;;;;10376643;28;20034;-75
2022/07/09 13:13:32;;;;;;;2.65;2.00;;;;;;;;;;10375398;28;20037;-74
2022/07/09 13:18:33;;;;;;;2.08;1.85;;;;;;;;;;10375008;28;20053;-74
2022/07/09 13:23:33;;;;;;;2.25;1.77;;;;;;;;;;10374850;28;20053;-73
2022/07/09 13:28:33;;;;;;;4.20;1.77;;;;;;;;;;10357540;28;20470;-75
2022/07/09 13:33:34;;;;;;;2.20;2.00;;;;;;;;;;10375739;28;20033;-74
2022/07/09 13:38:34;;;;;;;3.13;1.75;;;;;;;;;;10375538;28;20269;-74
2022/07/09 13:43:35;;;;;;;3.20;2.13;;;;;;;;;;10357735;28;20038;-74
2022/07/09 13:48:35;;;;;;;2.28;2.08;;;;;;;;;;10373827;28;20770;-75
2022/07/09 13:53:36;;;;;;;3.53;2.35;;;;;;;;;;10375415;28;20046;-75
2022/07/09 13:58:36;;;;;;;2.20;1.90;;;;;;;;;;10356697;28;20036;-75
2022/07/09 14:03:37;;;;;;;7.63;1.70;;;;;;;;;;10373471;28;20148;-75
2022/07/09 14:08:38;;;;;;;3.97;2.00;;;;;;;;;;10373503;28;20583;-75
2022/07/09 14:13:38;;;;;;;2.10;1.90;;;;;;;;;;10374493;28;20026;-75
2022/07/09 14:18:38;;;;;;;2.20;1.73;;;;;;;;;;10356586;28;20121;-76
2022/07/09 14:23:38;;;;;;;2.20;2.00;;;;;;;;;;10373936;28;20500;-74
2022/07/09 14:28:39;;;;;;;3.97;2.10;;;;;;;;;;10373674;28;20121;-74
2022/07/09 14:33:39;;;;;;;2.50;2.15;;;;;;;;;;10372229;28;20029;-75
2022/07/09 14:38:39;;;;;;;1.95;1.75;;;;;;;;;;10373866;28;20030;-75
2022/07/09 14:43:40;;;;;;;5.97;2.10;;;;;;;;;;10355811;28;20034;-74
2022/07/09 14:48:40;;;;;;;5.45;2.13;;;;;;;;;;10355118;28;20271;-74
2022/07/09 14:53:40;;;;;;;2.20;2.00;;;;;;;;;;10373323;28;20491;-74
2022/07/09 14:58:41;;;;;;;2.60;2.40;;;;;;;;;;10367452;28;20042;-74
2022/07/09 15:03:41;;;;;;;6.45;2.50;;;;;;;;;;10368556;28;20041;-75
2022/07/09 15:08:41;;;;;;;3.25;2.00;;;;;;;;;;10370905;28;20499;-74
2022/07/09 15:13:41;;;;;;;2.75;2.25;;;;;;;;;;10370701;28;20034;-75
2022/07/09 15:18:42;;;;;;;4.57;2.58;;;;;;;;;;10354447;28;20042;-74
2022/07/09 15:23:42;;;;;;;3.30;2.30;;;;;;;;;;10372303;28;20397;-74
2022/07/09 15:28:42;;;;;;;3.40;2.33;;;;;;;;;;10372259;28;20125;-75
2022/07/09 15:33:42;;;;;;;4.80;2.72;;;;;;;;;;10369890;28;20049;-75
2022/07/09 15:38:43;;;;;;;5.07;3.03;;;;;;;;;;10353886;28;20041;-75
2022/07/09 15:43:43;;;;;;;3.15;2.70;;;;;;;;;;10353525;28;20033;-75
2022/07/09 15:48:43;;;;;;;4.25;2.67;;;;;;;;;;10371040;28;20465;-75
2022/07/09 15:53:44;;;;;;;4.67;3.20;;;;;;;;;;10371270;28;20041;-75
2022/07/09 15:58:44;;;;;;;5.60;3.00;;;;;;;;;;10354176;28;20277;-75
2022/07/09 16:03:45;;;;;;;5.00;2.97;;;;;;;;;;10353126;28;20152;-75
2022/07/09 16:08:45;;;;;;;3.67;3.37;;;;;;;;;;10369432;28;20044;-75
2022/07/09 16:13:45;;;;;;;5.18;3.05;;;;;;;;;;10369103;28;20413;-75
2022/07/09 16:18:46;;;;;;;5.00;2.78;;;;;;;;;;10369364;28;20026;-75
2022/07/09 16:23:46;;;;;;;4.90;3.92;;;;;;;;;;10368854;28;20030;-75
2022/07/09 16:28:46;;;;;;;4.05;2.92;;;;;;;;;;10369729;28;20026;-76
2022/07/09 16:33:47;;;;;;;4.00;3.03;;;;;;;;;;10352637;28;20030;-75
2022/07/09 16:38:47;;;;;;;5.57;4.23;;;;;;;;;;10368355;28;20435;-76
2022/07/09 16:43:47;;;;;;;4.80;3.58;;;;;;;;;;10352082;28;20058;-75
2022/07/09 16:48:49;;;;;;;5.10;3.55;;;;;;;;;;10351831;28;20054;-75
2022/07/09 16:53:52;;;;;;;6.13;3.75;;;;;;;;;;10352003;28;20030;-75
2022/07/09 16:58:52;;;;;;;7.43;3.75;;;;;;;;;;10369496;28;20046;-74
2022/07/09 17:03:53;;;;;;;5.85;4.15;;;;;;;;;;10371229;28;20054;-76
2022/07/09 17:08:53;;;;;;;7.43;4.40;;;;;;;;;;10375758;28;20041;-76
2022/07/09 17:13:54;;;;;;;9.60;4.57;;;;;;;;;;10358915;28;20045;-77
2022/07/09 17:18:54;;;;;;;5.15;4.53;;;;;;;;;;10359291;28;20124;-74
2022/07/09 17:23:54;;;;;;;6.75;4.85;;;;;;;;;;10375908;28;20484;-74
2022/07/09 17:28:54;;;;;;;7.35;4.15;;;;;;;;;;10374592;28;20057;-74
2022/07/09 17:33:55;;;;;;;7.68;5.20;;;;;;;;;;10373314;28;20037;-74
2022/07/09 17:38:55;;;;;;;6.55;5.18;;;;;;;;;;10373753;28;20036;-74
2022/07/09 17:43:56;;;;;;;8.10;5.18;;;;;;;;;;10389495;28;20056;-75
2022/07/09 17:48:56;;;;;;;7.43;5.55;;;;;;;;;;10373914;28;20029;-74
2022/07/09 17:53:56;;;;;;;8.80;6.45;;;;;;;;;;10373787;28;20124;-73
2022/07/09 17:58:56;;;;;;;10.88;6.70;;;;;;;;;;10374625;28;20030;-74
2022/07/09 18:03:57;;;;;;;10.18;6.40;;;;;;;;;;10374429;28;20136;-76
2022/07/09 18:08:57;;;;;;;10.85;7.57;;;;;;;;;;10356810;28;20052;-75
2022/07/09 18:13:57;;;;;;;8.23;6.53;;;;;;;;;;10373943;28;20500;-75
2022/07/09 18:18:57;;;;;;;8.02;5.95;;;;;;;;;;10356230;28;20149;-73
2022/07/09 18:23:58;;;;;;;12.13;6.55;;;;;;;;;;10372677;28;20034;-74
2022/07/09 18:28:58;;;;;;;13.13;7.57;;;;;;;;;;10374303;28;20033;-75
2022/07/09 18:33:58;;;;;;;11.68;7.25;;;;;;;;;;10372217;28;20076;-75
2022/07/09 18:38:59;;;;;;;12.00;6.90;;;;;;;;;;10371674;28;20037;-75
2022/07/09 18:43:59;;;;;;;12.50;7.35;;;;;;;;;;10355378;28;20033;-75
2022/07/09 18:48:59;;;;;;;10.63;6.60;;;;;;;;;;10371487;28;20029;-74
2022/07/09 18:54:00;;;;;;;14.57;6.93;;;;;;;;;;10371368;28;20034;-74
2022/07/09 18:59:00;;;;;;;14.68;7.55;;;;;;;;;;10355043;28;20435;-75
2022/07/09 19:04:00;;;;;;;11.32;7.32;;;;;;;;;;10372557;28;20515;-74
2022/07/09 19:09:01;;;;;;;11.75;8.05;;;;;;;;;;10354694;28;20124;-74
2022/07/09 19:14:01;;;;;;;12.02;8.25;;;;;;;;;;10370827;28;20044;-74
2022/07/09 19:19:01;;;;;;;13.33;8.83;;;;;;;;;;10370669;28;20408;-74
2022/07/09 19:24:02;;;;;;;14.07;8.43;;;;;;;;;;10371491;28;20260;-75
2022/07/09 19:29:02;;;;;;;17.00;9.45;;;;;;;;;;10370155;28;20327;-75
2022/07/09 19:34:02;;;;;;;16.92;10.23;;;;;;;;;;10370412;28;20030;-74
2022/07/09 19:39:03;;;;;;;13.98;10.18;;;;;;;;;;10370201;28;20056;-75
2022/07/09 19:44:07;;;;;;;18.33;9.95;;;;;;;;;;10370447;28;20092;-74
2022/07/09 19:49:08;;;;;;;17.23;11.13;;;;;;;;;;10353584;28;20030;-75
2022/07/09 19:54:08;;;;;;;17.17;11.63;;;;;;;;;;10371196;28;20029;-76
2022/07/09 19:59:09;;;;;;;17.20;10.67;;;;;;;;;;10369893;28;20115;-75
2022/07/09 20:04:09;;;;;;;17.03;10.87;;;;;;;;;;10353830;28;20495;-75
2022/07/09 20:09:10;;;;;;;19.55;12.40;;;;;;;;;;10353564;28;20496;-74
2022/07/09 20:14:10;;;;;;;18.70;12.05;;;;;;;;;;10353297;28;20030;-75
2022/07/09 20:19:11;;;;;;;17.20;11.85;;;;;;;;;;10369292;28;20030;-75
2022/07/09 20:24:12;;;;;;;22.67;12.95;;;;;;;;;;10369561;28;20037;-75
2022/07/09 20:29:12;;;;;;;23.05;12.55;;;;;;;;;;10369521;28;20487;-74
2022/07/09 20:34:12;;;;;;;21.60;13.07;;;;;;;;;;10369649;28;20091;-76
2022/07/09 20:39:12;;;;;;;19.90;14.35;;;;;;;;;;10357723;28;20034;-76
2022/07/09 20:44:13;;;;;;;21.48;14.02;;;;;;;;;;10377097;28;20121;-75
2022/07/09 20:49:13;;;;;;;25.02;13.65;;;;;;;;;;10376846;28;20030;-75
2022/07/09 20:54:14;;;;;;;26.55;15.73;;;;;;;;;;10377031;28;20419;-75
2022/07/09 20:59:14;;;;;;;24.40;15.95;;;;;;;;;;10359667;28;20050;-74
2022/07/09 21:04:14;;;;;;;21.98;14.48;;;;;;;;;;10376001;28;20077;-74
2022/07/09 21:09:14;;;;;;;26.42;15.82;;;;;;;;;;10375849;28;20034;-74
2022/07/09 21:14:15;;;;;;;21.77;14.88;;;;;;;;;;10375624;28;20133;-74
2022/07/09 21:19:15;;;;;;;25.13;15.98;;;;;;;;;;10359345;28;20032;-74
2022/07/09 21:24:15;;;;;;;25.35;15.45;;;;;;;;;;10375257;28;20088;-74
2022/07/09 21:29:16;;;;;;;23.38;15.50;;;;;;;;;;10375467;28;20168;-73
2022/07/09 21:34:16;;;;;;;24.35;15.93;;;;;;;;;;10375294;28;20030;-74
2022/07/09 21:39:17;;;;;;;22.50;16.08;;;;;;;;;;10374533;28;20030;-74
2022/07/09 21:44:17;;;;;;;24.17;16.02;;;;;;;;;;10358465;28;20030;-73
2022/07/09 21:49:17;;;;;;;24.48;17.13;;;;;;;;;;10373651;28;20131;-74
2022/07/09 21:54:17;;;;;;;25.45;17.48;;;;;;;;;;10373950;28;20041;-74
2022/07/09 21:59:18;;;;;;;20.88;15.82;;;;;;;;;;10357645;28;20558;-74
2022/07/09 22:04:18;;;;;;;25.83;16.83;;;;;;;;;;10373798;28;20092;-75
2022/07/09 22:09:18;;;;;;;27.85;15.77;;;;;;;;;;10356801;28;20030;-74
2022/07/09 22:14:19;;;;;;;21.95;15.73;;;;;;;;;;10356729;28;20133;-74
2022/07/09 22:19:19;;;;;;;24.57;16.27;;;;;;;;;;10374331;28;20037;-74
2022/07/09 22:24:19;;;;;;;24.55;17.13;;;;;;;;;;10356552;28;20273;-74
2022/07/09 22:29:20;;;;;;;24.38;16.67;;;;;;;;;;10372624;28;20030;-74
2022/07/09 22:34:20;;;;;;;26.20;16.67;;;;;;;;;;10356203;28;20144;-74
2022/07/09 22:39:21;;;;;;;23.55;15.40;;;;;;;;;;10372213;28;20033;-75
2022/07/09 22:44:21;;;;;;;21.10;14.88;;;;;;;;;;10372164;28;20415;-74
2022/07/09 22:49:22;;;;;;;27.33;16.42;;;;;;;;;;10371900;28;20040;-74
2022/07/09 22:54:22;;;;;;;22.38;15.25;;;;;;;;;;10371696;28;20056;-74
2022/07/09 22:59:22;;;;;;;19.65;13.90;;;;;;;;;;10364440;28;20116;-75
2022/07/09 23:04:23;;;;;;;19.50;14.23;;;;;;;;;;10370759;28;20124;-75
2022/07/09 23:09:23;;;;;;;21.13;14.57;;;;;;;;;;10354779;28;20507;-75
2022/07/09 23:14:24;;;;;;;21.30;14.68;;;;;;;;;;10371186;28;20479;-74
2022/07/09 23:19:24;;;;;;;19.63;14.20;;;;;;;;;;10370878;28;20129;-74
2022/07/09 23:24:25;;;;;;;18.63;13.15;;;;;;;;;;10354268;28;20026;-74
2022/07/09 23:29:25;;;;;;;19.77;14.10;;;;;;;;;;10370459;28;20116;-74
2022/07/09 23:34:26;;;;;;;17.77;12.45;;;;;;;;;;10353657;28;20121;-74
2022/07/09 23:39:26;;;;;;;17.55;12.85;;;;;;;;;;10370113;28;20443;-75
2022/07/09 23:44:26;;;;;;;18.20;12.70;;;;;;;;;;10353700;28;20116;-74
2022/07/09 23:49:26;;;;;;;19.33;12.73;;;;;;;;;;10337344;28;20451;-74
2022/07/09 23:54:27;;;;;;;32.20;14.38;;;;;;;;;;10369700;28;20037;-74
2022/07/09 23:59:27;;;;;;;18.98;13.68;;;;;;;;;;10369559;28;20049;-75
